sensor_id;sensor_type;location;lat;lon;timestamp;P1;durP1;ratioP1;P2;durP2;ratioP2
35128;SDS011;21301;43.626;10.580;2024-03-23T00:54:28;11.55;;;6.90;;
35128;SDS011;21301;43.626;10.580;2024-03-23T00:56:54;11.02;;;6.50;;
35128;SDS011;21301;43.626;10.580;2024-03-23T00:59:19;10.80;;;5.45;;
35128;SDS011;21301;43.626;10.580;2024-03-23T01:01:47;7.70;;;5.13;;
35128;SDS011;21301;43.626;10.580;2024-03-23T01:04:14;10.60;;;5.88;;
35128;SDS011;21301;43.626;10.580;2024-03-23T01:06:42;9.45;;;5.90;;
35128;SDS011;21301;43.626;10.580;2024-03-23T01:09:07;10.60;;;5.78;;
35128;SDS011;21301;43.626;10.580;2024-03-23T01:11:36;13.43;;;7.55;;
35128;SDS011;21301;43.626;10.580;2024-03-23T01:14:02;12.63;;;6.90;;
35128;SDS011;21301;43.626;10.580;2024-03-23T01:16:28;8.80;;;5.30;;
35128;SDS011;21301;43.626;10.580;2024-03-23T01:18:55;12.77;;;6.03;;
35128;SDS011;21301;43.626;10.580;2024-03-23T01:21:21;10.77;;;6.72;;
35128;SDS011;21301;43.626;10.580;2024-03-23T01:23:46;9.65;;;6.13;;
35128;SDS011;21301;43.626;10.580;2024-03-23T01:26:12;10.13;;;6.32;;
35128;SDS011;21301;43.626;10.580;2024-03-23T01:28:37;14.48;;;7.45;;
35128;SDS011;21301;43.626;10.580;2024-03-23T01:31:03;13.07;;;7.45;;
35128;SDS011;21301;43.626;10.580;2024-03-23T01:33:28;13.40;;;8.02;;
35128;SDS011;21301;43.626;10.580;2024-03-23T01:35:54;13.02;;;7.30;;
35128;SDS011;21301;43.626;10.580;2024-03-23T01:38:19;15.48;;;9.30;;
35128;SDS011;21301;43.626;10.580;2024-03-23T01:40:48;9.02;;;6.50;;
35128;SDS011;21301;43.626;10.580;2024-03-23T01:43:14;10.38;;;6.43;;
35128;SDS011;21301;43.626;10.580;2024-03-23T01:45:39;11.40;;;6.72;;
35128;SDS011;21301;43.626;10.580;2024-03-23T01:48:05;13.18;;;7.70;;
35128;SDS011;21301;43.626;10.580;2024-03-23T01:50:32;17.75;;;7.72;;
35128;SDS011;21301;43.626;10.580;2024-03-23T01:53:01;12.68;;;7.45;;
35128;SDS011;21301;43.626;10.580;2024-03-23T01:55:27;10.07;;;6.88;;
35128;SDS011;21301;43.626;10.580;2024-03-23T01:57:56;13.85;;;7.15;;
35128;SDS011;21301;43.626;10.580;2024-03-23T02:00:22;15.80;;;8.63;;
35128;SDS011;21301;43.626;10.580;2024-03-23T02:02:48;15.25;;;8.18;;
35128;SDS011;21301;43.626;10.580;2024-03-23T02:05:14;13.13;;;7.90;;
35128;SDS011;21301;43.626;10.580;2024-03-23T02:07:39;13.50;;;7.75;;
35128;SDS011;21301;43.626;10.580;2024-03-23T02:10:06;17.10;;;8.57;;
35128;SDS011;21301;43.626;10.580;2024-03-23T02:12:32;13.65;;;8.23;;
35128;SDS011;21301;43.626;10.580;2024-03-23T02:14:59;10.55;;;6.95;;
35128;SDS011;21301;43.626;10.580;2024-03-23T02:17:24;10.98;;;7.18;;
35128;SDS011;21301;43.626;10.580;2024-03-23T02:19:50;10.77;;;6.90;;
35128;SDS011;21301;43.626;10.580;2024-03-23T02:22:16;13.02;;;7.68;;
35128;SDS011;21301;43.626;10.580;2024-03-23T02:24:41;15.10;;;8.00;;
35128;SDS011;21301;43.626;10.580;2024-03-23T02:27:07;13.65;;;7.10;;
35128;SDS011;21301;43.626;10.580;2024-03-23T02:29:35;11.77;;;7.18;;
35128;SDS011;21301;43.626;10.580;2024-03-23T02:32:00;12.27;;;7.25;;
35128;SDS011;21301;43.626;10.580;2024-03-23T02:34:26;11.85;;;7.60;;
35128;SDS011;21301;43.626;10.580;2024-03-23T02:36:53;11.13;;;6.78;;
35128;SDS011;21301;43.626;10.580;2024-03-23T02:39:18;12.35;;;6.75;;
35128;SDS011;21301;43.626;10.580;2024-03-23T02:41:44;11.80;;;7.38;;
35128;SDS011;21301;43.626;10.580;2024-03-23T02:44:10;10.45;;;5.70;;
35128;SDS011;21301;43.626;10.580;2024-03-23T02:46:37;11.23;;;7.00;;
35128;SDS011;21301;43.626;10.580;2024-03-23T02:49:03;10.93;;;6.22;;
35128;SDS011;21301;43.626;10.580;2024-03-23T02:51:29;13.60;;;7.03;;
35128;SDS011;21301;43.626;10.580;2024-03-23T02:53:55;11.00;;;5.88;;
35128;SDS011;21301;43.626;10.580;2024-03-23T02:56:21;8.75;;;5.80;;
35128;SDS011;21301;43.626;10.580;2024-03-23T02:58:46;11.07;;;6.95;;
35128;SDS011;21301;43.626;10.580;2024-03-23T03:01:12;11.63;;;6.60;;
35128;SDS011;21301;43.626;10.580;2024-03-23T03:03:37;11.65;;;6.50;;
35128;SDS011;21301;43.626;10.580;2024-03-23T03:06:03;8.73;;;5.60;;
35128;SDS011;21301;43.626;10.580;2024-03-23T03:08:29;9.15;;;5.75;;
35128;SDS011;21301;43.626;10.580;2024-03-23T03:10:54;9.27;;;5.32;;
35128;SDS011;21301;43.626;10.580;2024-03-23T03:13:20;8.93;;;4.72;;
35128;SDS011;21301;43.626;10.580;2024-03-23T03:15:46;9.48;;;5.63;;
35128;SDS011;21301;43.626;10.580;2024-03-23T03:18:12;9.90;;;6.03;;
35128;SDS011;21301;43.626;10.580;2024-03-23T03:20:40;11.50;;;6.00;;
35128;SDS011;21301;43.626;10.580;2024-03-23T03:23:07;11.15;;;6.07;;
35128;SDS011;21301;43.626;10.580;2024-03-23T03:25:32;10.73;;;5.57;;
35128;SDS011;21301;43.626;10.580;2024-03-23T03:27:58;9.70;;;4.53;;
35128;SDS011;21301;43.626;10.580;2024-03-23T03:30:24;9.02;;;5.28;;
35128;SDS011;21301;43.626;10.580;2024-03-23T03:32:50;10.77;;;6.28;;
35128;SDS011;21301;43.626;10.580;2024-03-23T03:35:18;12.52;;;7.13;;
35128;SDS011;21301;43.626;10.580;2024-03-23T03:37:44;11.07;;;6.53;;
35128;SDS011;21301;43.626;10.580;2024-03-23T03:40:10;12.13;;;5.97;;
35128;SDS011;21301;43.626;10.580;2024-03-23T03:42:36;12.20;;;7.25;;
35128;SDS011;21301;43.626;10.580;2024-03-23T03:45:02;13.07;;;8.15;;
35128;SDS011;21301;43.626;10.580;2024-03-23T03:47:30;12.88;;;8.10;;
35128;SDS011;21301;43.626;10.580;2024-03-23T03:49:55;10.73;;;6.60;;
35128;SDS011;21301;43.626;10.580;2024-03-23T03:52:21;15.13;;;7.00;;
35128;SDS011;21301;43.626;10.580;2024-03-23T03:54:46;17.23;;;6.05;;
35128;SDS011;21301;43.626;10.580;2024-03-23T03:57:13;8.82;;;5.25;;
35128;SDS011;21301;43.626;10.580;2024-03-23T03:59:39;11.38;;;6.15;;
35128;SDS011;21301;43.626;10.580;2024-03-23T04:02:04;8.70;;;5.53;;
35128;SDS011;21301;43.626;10.580;2024-03-23T04:04:31;10.38;;;5.72;;
35128;SDS011;21301;43.626;10.580;2024-03-23T04:07:00;13.32;;;7.40;;
35128;SDS011;21301;43.626;10.580;2024-03-23T04:09:28;13.60;;;7.38;;
35128;SDS011;21301;43.626;10.580;2024-03-23T04:11:54;14.57;;;6.95;;
35128;SDS011;21301;43.626;10.580;2024-03-23T04:14:20;15.75;;;8.85;;
35128;SDS011;21301;43.626;10.580;2024-03-23T04:16:45;14.40;;;7.22;;
35128;SDS011;21301;43.626;10.580;2024-03-23T04:19:11;17.73;;;8.30;;
35128;SDS011;21301;43.626;10.580;2024-03-23T04:21:37;12.98;;;6.78;;
35128;SDS011;21301;43.626;10.580;2024-03-23T04:24:03;8.40;;;5.32;;
35128;SDS011;21301;43.626;10.580;2024-03-23T04:26:29;9.20;;;6.03;;
35128;SDS011;21301;43.626;10.580;2024-03-23T04:29:05;10.55;;;5.30;;
35128;SDS011;21301;43.626;10.580;2024-03-23T04:31:31;7.95;;;4.72;;
35128;SDS011;21301;43.626;10.580;2024-03-23T04:33:59;8.63;;;4.90;;
35128;SDS011;21301;43.626;10.580;2024-03-23T04:36:30;9.90;;;5.22;;
35128;SDS011;21301;43.626;10.580;2024-03-23T04:38:56;10.32;;;4.57;;
35128;SDS011;21301;43.626;10.580;2024-03-23T04:41:25;7.30;;;4.00;;
35128;SDS011;21301;43.626;10.580;2024-03-23T04:43:51;6.93;;;4.32;;
35128;SDS011;21301;43.626;10.580;2024-03-23T04:46:20;9.07;;;4.60;;
35128;SDS011;21301;43.626;10.580;2024-03-23T04:48:47;8.10;;;4.35;;
35128;SDS011;21301;43.626;10.580;2024-03-23T04:51:24;8.57;;;5.10;;
35128;SDS011;21301;43.626;10.580;2024-03-23T04:53:50;9.00;;;5.47;;
35128;SDS011;21301;43.626;10.580;2024-03-23T04:56:20;7.50;;;4.72;;
35128;SDS011;21301;43.626;10.580;2024-03-23T04:58:47;8.23;;;4.95;;
35128;SDS011;21301;43.626;10.580;2024-03-23T05:01:12;10.52;;;5.03;;
35128;SDS011;21301;43.626;10.580;2024-03-23T05:03:38;9.02;;;4.88;;
35128;SDS011;21301;43.626;10.580;2024-03-23T05:06:04;9.75;;;4.45;;
35128;SDS011;21301;43.626;10.580;2024-03-23T05:08:30;7.82;;;5.05;;
35128;SDS011;21301;43.626;10.580;2024-03-23T05:10:58;9.02;;;5.68;;
35128;SDS011;21301;43.626;10.580;2024-03-23T05:13:24;8.57;;;4.88;;
35128;SDS011;21301;43.626;10.580;2024-03-23T05:15:53;9.30;;;5.35;;
35128;SDS011;21301;43.626;10.580;2024-03-23T05:18:20;10.20;;;5.47;;
35128;SDS011;21301;43.626;10.580;2024-03-23T05:20:46;7.30;;;4.57;;
35128;SDS011;21301;43.626;10.580;2024-03-23T05:23:11;9.68;;;5.32;;
35128;SDS011;21301;43.626;10.580;2024-03-23T05:25:37;9.02;;;5.15;;
35128;SDS011;21301;43.626;10.580;2024-03-23T05:28:02;9.23;;;5.10;;
35128;SDS011;21301;43.626;10.580;2024-03-23T05:30:28;7.85;;;5.32;;
35128;SDS011;21301;43.626;10.580;2024-03-23T05:32:54;9.75;;;4.78;;
35128;SDS011;21301;43.626;10.580;2024-03-23T05:35:19;10.77;;;5.05;;
35128;SDS011;21301;43.626;10.580;2024-03-23T05:37:45;11.65;;;5.25;;
35128;SDS011;21301;43.626;10.580;2024-03-23T05:40:10;14.20;;;7.80;;
35128;SDS011;21301;43.626;10.580;2024-03-23T05:42:40;15.05;;;8.95;;
35128;SDS011;21301;43.626;10.580;2024-03-23T05:45:07;44.80;;;24.30;;
35128;SDS011;21301;43.626;10.580;2024-03-23T05:47:34;36.28;;;21.98;;
35128;SDS011;21301;43.626;10.580;2024-03-23T05:50:00;22.70;;;14.32;;
35128;SDS011;21301;43.626;10.580;2024-03-23T05:52:27;26.75;;;15.38;;
35128;SDS011;21301;43.626;10.580;2024-03-23T05:54:53;18.30;;;10.25;;
35128;SDS011;21301;43.626;10.580;2024-03-23T05:57:18;15.18;;;8.85;;
35128;SDS011;21301;43.626;10.580;2024-03-23T05:59:45;14.93;;;7.22;;
35128;SDS011;21301;43.626;10.580;2024-03-23T06:02:11;12.68;;;7.60;;
35128;SDS011;21301;43.626;10.580;2024-03-23T06:04:37;10.50;;;6.35;;
35128;SDS011;21301;43.626;10.580;2024-03-23T06:07:03;10.60;;;6.38;;
35128;SDS011;21301;43.626;10.580;2024-03-23T06:09:33;11.70;;;5.05;;
35128;SDS011;21301;43.626;10.580;2024-03-23T06:11:58;10.70;;;5.78;;
35128;SDS011;21301;43.626;10.580;2024-03-23T06:14:24;9.90;;;5.45;;
35128;SDS011;21301;43.626;10.580;2024-03-23T06:16:49;12.02;;;5.65;;
35128;SDS011;21301;43.626;10.580;2024-03-23T06:19:17;10.77;;;5.50;;
35128;SDS011;21301;43.626;10.580;2024-03-23T06:21:45;9.82;;;5.25;;
35128;SDS011;21301;43.626;10.580;2024-03-23T06:24:11;14.68;;;5.65;;
35128;SDS011;21301;43.626;10.580;2024-03-23T06:26:37;7.53;;;4.85;;
35128;SDS011;21301;43.626;10.580;2024-03-23T06:29:03;8.98;;;5.05;;
35128;SDS011;21301;43.626;10.580;2024-03-23T06:31:30;9.82;;;5.30;;
35128;SDS011;21301;43.626;10.580;2024-03-23T06:33:56;8.85;;;5.05;;
35128;SDS011;21301;43.626;10.580;2024-03-23T06:36:21;9.77;;;4.47;;
35128;SDS011;21301;43.626;10.580;2024-03-23T06:38:48;11.13;;;5.38;;
35128;SDS011;21301;43.626;10.580;2024-03-23T06:41:15;10.02;;;5.07;;
35128;SDS011;21301;43.626;10.580;2024-03-23T06:43:40;9.48;;;5.55;;
35128;SDS011;21301;43.626;10.580;2024-03-23T06:46:06;10.85;;;5.78;;
35128;SDS011;21301;43.626;10.580;2024-03-23T06:48:32;9.65;;;5.75;;
35128;SDS011;21301;43.626;10.580;2024-03-23T06:50:57;12.90;;;7.32;;
35128;SDS011;21301;43.626;10.580;2024-03-23T06:53:25;13.52;;;8.60;;
35128;SDS011;21301;43.626;10.580;2024-03-23T06:55:52;13.98;;;8.95;;
35128;SDS011;21301;43.626;10.580;2024-03-23T06:58:20;15.05;;;10.40;;
35128;SDS011;21301;43.626;10.580;2024-03-23T07:00:46;16.55;;;9.90;;
35128;SDS011;21301;43.626;10.580;2024-03-23T07:03:12;16.60;;;10.05;;
35128;SDS011;21301;43.626;10.580;2024-03-23T07:05:37;13.13;;;9.00;;
35128;SDS011;21301;43.626;10.580;2024-03-23T07:08:03;14.23;;;9.82;;
35128;SDS011;21301;43.626;10.580;2024-03-23T07:10:29;25.90;;;10.15;;
35128;SDS011;21301;43.626;10.580;2024-03-23T07:12:54;13.85;;;9.68;;
35128;SDS011;21301;43.626;10.580;2024-03-23T07:15:20;11.85;;;8.80;;
35128;SDS011;21301;43.626;10.580;2024-03-23T07:17:50;14.40;;;9.05;;
35128;SDS011;21301;43.626;10.580;2024-03-23T07:20:16;16.75;;;7.78;;
35128;SDS011;21301;43.626;10.580;2024-03-23T07:22:41;12.57;;;7.32;;
35128;SDS011;21301;43.626;10.580;2024-03-23T07:25:07;12.85;;;7.47;;
35128;SDS011;21301;43.626;10.580;2024-03-23T07:27:33;10.85;;;6.25;;
35128;SDS011;21301;43.626;10.580;2024-03-23T07:29:59;11.45;;;7.00;;
35128;SDS011;21301;43.626;10.580;2024-03-23T07:32:26;10.38;;;6.07;;
35128;SDS011;21301;43.626;10.580;2024-03-23T07:34:52;10.38;;;6.20;;
35128;SDS011;21301;43.626;10.580;2024-03-23T07:37:18;11.63;;;6.72;;
35128;SDS011;21301;43.626;10.580;2024-03-23T07:39:45;13.45;;;7.95;;
35128;SDS011;21301;43.626;10.580;2024-03-23T07:42:10;16.05;;;8.63;;
35128;SDS011;21301;43.626;10.580;2024-03-23T07:44:39;14.05;;;8.40;;
35128;SDS011;21301;43.626;10.580;2024-03-23T07:47:06;13.15;;;7.50;;
35128;SDS011;21301;43.626;10.580;2024-03-23T07:49:33;15.18;;;9.25;;
35128;SDS011;21301;43.626;10.580;2024-03-23T07:51:58;17.17;;;11.77;;
35128;SDS011;21301;43.626;10.580;2024-03-23T07:54:24;18.65;;;11.88;;
35128;SDS011;21301;43.626;10.580;2024-03-23T07:56:49;16.88;;;10.05;;
35128;SDS011;21301;43.626;10.580;2024-03-23T07:59:15;24.92;;;11.45;;
35128;SDS011;21301;43.626;10.580;2024-03-23T08:01:41;17.42;;;10.15;;
35128;SDS011;21301;43.626;10.580;2024-03-23T08:04:06;19.30;;;11.02;;
35128;SDS011;21301;43.626;10.580;2024-03-23T08:06:33;21.48;;;10.65;;
35128;SDS011;21301;43.626;10.580;2024-03-23T08:08:59;23.52;;;10.60;;
35128;SDS011;21301;43.626;10.580;2024-03-23T08:11:29;16.83;;;10.05;;
35128;SDS011;21301;43.626;10.580;2024-03-23T08:13:55;22.00;;;10.13;;
35128;SDS011;21301;43.626;10.580;2024-03-23T08:16:22;21.85;;;10.68;;
35128;SDS011;21301;43.626;10.580;2024-03-23T08:18:50;22.30;;;9.68;;
35128;SDS011;21301;43.626;10.580;2024-03-23T08:21:17;18.58;;;9.82;;
35128;SDS011;21301;43.626;10.580;2024-03-23T08:23:44;12.55;;;8.57;;
35128;SDS011;21301;43.626;10.580;2024-03-23T08:26:12;14.88;;;9.80;;
35128;SDS011;21301;43.626;10.580;2024-03-23T08:28:42;20.85;;;12.35;;
35128;SDS011;21301;43.626;10.580;2024-03-23T08:31:08;16.33;;;11.07;;
35128;SDS011;21301;43.626;10.580;2024-03-23T08:33:35;21.27;;;12.20;;
35128;SDS011;21301;43.626;10.580;2024-03-23T08:36:02;19.42;;;10.57;;
35128;SDS011;21301;43.626;10.580;2024-03-23T08:38:31;19.20;;;10.93;;
35128;SDS011;21301;43.626;10.580;2024-03-23T08:43:26;13.65;;;9.25;;
35128;SDS011;21301;43.626;10.580;2024-03-23T08:45:52;18.85;;;10.02;;
35128;SDS011;21301;43.626;10.580;2024-03-23T08:48:19;14.63;;;9.63;;
35128;SDS011;21301;43.626;10.580;2024-03-23T08:50:58;22.55;;;9.27;;
35128;SDS011;21301;43.626;10.580;2024-03-23T08:53:27;26.48;;;9.23;;
35128;SDS011;21301;43.626;10.580;2024-03-23T08:55:58;15.43;;;9.35;;
35128;SDS011;21301;43.626;10.580;2024-03-23T08:58:26;15.77;;;9.65;;
35128;SDS011;21301;43.626;10.580;2024-03-23T09:00:54;16.08;;;8.00;;
35128;SDS011;21301;43.626;10.580;2024-03-23T09:03:24;14.57;;;7.75;;
35128;SDS011;21301;43.626;10.580;2024-03-23T09:05:53;15.80;;;8.68;;
35128;SDS011;21301;43.626;10.580;2024-03-23T09:08:21;12.95;;;8.32;;
35128;SDS011;21301;43.626;10.580;2024-03-23T09:10:47;18.92;;;8.90;;
35128;SDS011;21301;43.626;10.580;2024-03-23T09:13:14;14.32;;;8.98;;
35128;SDS011;21301;43.626;10.580;2024-03-23T09:15:51;18.10;;;9.50;;
35128;SDS011;21301;43.626;10.580;2024-03-23T09:18:21;23.95;;;11.07;;
35128;SDS011;21301;43.626;10.580;2024-03-23T09:20:53;21.52;;;9.88;;
35128;SDS011;21301;43.626;10.580;2024-03-23T09:23:23;40.90;;;15.90;;
35128;SDS011;21301;43.626;10.580;2024-03-23T09:25:49;17.42;;;9.57;;
35128;SDS011;21301;43.626;10.580;2024-03-23T09:28:15;21.63;;;9.75;;
35128;SDS011;21301;43.626;10.580;2024-03-23T09:30:40;13.77;;;8.18;;
35128;SDS011;21301;43.626;10.580;2024-03-23T09:33:12;16.27;;;7.28;;
35128;SDS011;21301;43.626;10.580;2024-03-23T09:35:42;19.98;;;9.30;;
35128;SDS011;21301;43.626;10.580;2024-03-23T09:38:09;15.65;;;7.28;;
35128;SDS011;21301;43.626;10.580;2024-03-23T09:40:45;15.18;;;7.40;;
35128;SDS011;21301;43.626;10.580;2024-03-23T09:43:14;14.13;;;7.68;;
35128;SDS011;21301;43.626;10.580;2024-03-23T09:45:40;11.63;;;6.63;;
35128;SDS011;21301;43.626;10.580;2024-03-23T09:48:07;13.23;;;7.03;;
35128;SDS011;21301;43.626;10.580;2024-03-23T09:50:38;13.85;;;7.95;;
35128;SDS011;21301;43.626;10.580;2024-03-23T09:53:20;11.32;;;6.93;;
35128;SDS011;21301;43.626;10.580;2024-03-23T09:55:47;14.65;;;8.27;;
35128;SDS011;21301;43.626;10.580;2024-03-23T09:58:23;14.98;;;8.20;;
35128;SDS011;21301;43.626;10.580;2024-03-23T10:00:52;12.05;;;6.25;;
35128;SDS011;21301;43.626;10.580;2024-03-23T10:03:17;13.60;;;7.93;;
35128;SDS011;21301;43.626;10.580;2024-03-23T10:05:59;13.43;;;7.20;;
35128;SDS011;21301;43.626;10.580;2024-03-23T10:08:26;12.13;;;7.45;;
35128;SDS011;21301;43.626;10.580;2024-03-23T10:10:56;10.77;;;6.22;;
35128;SDS011;21301;43.626;10.580;2024-03-23T10:13:23;9.98;;;6.75;;
35128;SDS011;21301;43.626;10.580;2024-03-23T10:15:56;15.13;;;7.43;;
35128;SDS011;21301;43.626;10.580;2024-03-23T10:18:23;12.48;;;7.22;;
35128;SDS011;21301;43.626;10.580;2024-03-23T10:21:13;10.80;;;6.35;;
35128;SDS011;21301;43.626;10.580;2024-03-23T10:23:41;10.98;;;5.95;;
35128;SDS011;21301;43.626;10.580;2024-03-23T10:26:26;11.60;;;6.55;;
35128;SDS011;21301;43.626;10.580;2024-03-23T10:28:53;11.95;;;6.85;;
35128;SDS011;21301;43.626;10.580;2024-03-23T10:31:28;10.55;;;6.47;;
35128;SDS011;21301;43.626;10.580;2024-03-23T10:33:55;14.30;;;7.53;;
35128;SDS011;21301;43.626;10.580;2024-03-23T10:36:24;12.70;;;6.72;;
35128;SDS011;21301;43.626;10.580;2024-03-23T10:38:54;12.00;;;6.78;;
35128;SDS011;21301;43.626;10.580;2024-03-23T10:41:20;10.50;;;6.50;;
35128;SDS011;21301;43.626;10.580;2024-03-23T10:43:51;14.73;;;8.65;;
35128;SDS011;21301;43.626;10.580;2024-03-23T10:46:16;15.55;;;9.40;;
35128;SDS011;21301;43.626;10.580;2024-03-23T10:48:43;11.75;;;7.88;;
35128;SDS011;21301;43.626;10.580;2024-03-23T10:51:11;13.93;;;7.65;;
35128;SDS011;21301;43.626;10.580;2024-03-23T10:53:39;12.80;;;7.45;;
35128;SDS011;21301;43.626;10.580;2024-03-23T10:56:06;14.07;;;9.02;;
35128;SDS011;21301;43.626;10.580;2024-03-23T10:58:39;16.88;;;9.30;;
35128;SDS011;21301;43.626;10.580;2024-03-23T11:01:11;14.40;;;6.80;;
35128;SDS011;21301;43.626;10.580;2024-03-23T11:03:39;9.60;;;6.00;;
35128;SDS011;21301;43.626;10.580;2024-03-23T11:06:09;14.48;;;6.20;;
35128;SDS011;21301;43.626;10.580;2024-03-23T11:08:40;9.90;;;5.47;;
35128;SDS011;21301;43.626;10.580;2024-03-23T11:11:18;13.85;;;6.75;;
35128;SDS011;21301;43.626;10.580;2024-03-23T11:13:49;14.18;;;6.40;;
35128;SDS011;21301;43.626;10.580;2024-03-23T11:16:24;10.75;;;5.28;;
35128;SDS011;21301;43.626;10.580;2024-03-23T11:22:01;10.52;;;5.05;;
35128;SDS011;21301;43.626;10.580;2024-03-23T11:24:28;8.80;;;5.05;;
35128;SDS011;21301;43.626;10.580;2024-03-23T11:26:54;10.05;;;4.80;;
35128;SDS011;21301;43.626;10.580;2024-03-23T11:29:21;10.70;;;6.00;;
35128;SDS011;21301;43.626;10.580;2024-03-23T11:31:52;7.85;;;4.43;;
35128;SDS011;21301;43.626;10.580;2024-03-23T11:34:21;8.50;;;4.65;;
35128;SDS011;21301;43.626;10.580;2024-03-23T11:36:47;10.38;;;4.93;;
35128;SDS011;21301;43.626;10.580;2024-03-23T11:41:50;11.48;;;7.40;;
35128;SDS011;21301;43.626;10.580;2024-03-23T11:44:19;10.73;;;7.15;;
35128;SDS011;21301;43.626;10.580;2024-03-23T11:46:50;12.52;;;6.65;;
35128;SDS011;21301;43.626;10.580;2024-03-23T11:49:21;13.68;;;7.20;;
35128;SDS011;21301;43.626;10.580;2024-03-23T11:51:48;9.57;;;5.97;;
35128;SDS011;21301;43.626;10.580;2024-03-23T11:54:14;14.95;;;6.78;;
35128;SDS011;21301;43.626;10.580;2024-03-23T11:56:57;12.63;;;7.45;;
35128;SDS011;21301;43.626;10.580;2024-03-23T11:59:36;10.52;;;6.55;;
35128;SDS011;21301;43.626;10.580;2024-03-23T12:02:19;15.48;;;7.40;;
35128;SDS011;21301;43.626;10.580;2024-03-23T12:04:46;12.93;;;7.32;;
35128;SDS011;21301;43.626;10.580;2024-03-23T12:07:12;13.45;;;7.88;;
35128;SDS011;21301;43.626;10.580;2024-03-23T12:09:47;12.88;;;7.32;;
35128;SDS011;21301;43.626;10.580;2024-03-23T12:12:28;11.23;;;6.97;;
35128;SDS011;21301;43.626;10.580;2024-03-23T12:17:30;10.50;;;5.82;;
35128;SDS011;21301;43.626;10.580;2024-03-23T12:19:56;15.45;;;7.05;;
35128;SDS011;21301;43.626;10.580;2024-03-23T12:22:22;9.93;;;5.13;;
35128;SDS011;21301;43.626;10.580;2024-03-23T12:24:48;10.18;;;6.05;;
35128;SDS011;21301;43.626;10.580;2024-03-23T12:27:14;9.73;;;6.18;;
35128;SDS011;21301;43.626;10.580;2024-03-23T12:29:40;10.65;;;6.30;;
35128;SDS011;21301;43.626;10.580;2024-03-23T12:32:08;12.13;;;4.82;;
35128;SDS011;21301;43.626;10.580;2024-03-23T12:34:34;8.35;;;4.97;;
35128;SDS011;21301;43.626;10.580;2024-03-23T12:37:00;8.15;;;5.43;;
35128;SDS011;21301;43.626;10.580;2024-03-23T12:39:26;9.60;;;5.47;;
35128;SDS011;21301;43.626;10.580;2024-03-23T12:41:52;11.65;;;4.53;;
35128;SDS011;21301;43.626;10.580;2024-03-23T12:44:18;9.02;;;4.57;;
35128;SDS011;21301;43.626;10.580;2024-03-23T12:46:44;8.85;;;4.28;;
35128;SDS011;21301;43.626;10.580;2024-03-23T12:49:11;9.90;;;4.60;;
35128;SDS011;21301;43.626;10.580;2024-03-23T12:51:37;10.55;;;5.53;;
35128;SDS011;21301;43.626;10.580;2024-03-23T12:54:02;9.25;;;4.82;;
35128;SDS011;21301;43.626;10.580;2024-03-23T12:56:29;9.18;;;4.80;;
35128;SDS011;21301;43.626;10.580;2024-03-23T12:58:55;13.27;;;5.22;;
35128;SDS011;21301;43.626;10.580;2024-03-23T13:01:25;13.63;;;6.07;;
35128;SDS011;21301;43.626;10.580;2024-03-23T13:03:52;11.85;;;5.10;;
35128;SDS011;21301;43.626;10.580;2024-03-23T13:06:18;13.18;;;5.70;;
35128;SDS011;21301;43.626;10.580;2024-03-23T13:08:45;10.15;;;6.18;;
35128;SDS011;21301;43.626;10.580;2024-03-23T13:11:11;11.13;;;5.13;;
35128;SDS011;21301;43.626;10.580;2024-03-23T13:13:37;12.88;;;5.22;;
35128;SDS011;21301;43.626;10.580;2024-03-23T13:16:03;8.48;;;5.10;;
35128;SDS011;21301;43.626;10.580;2024-03-23T13:18:30;12.60;;;5.93;;
35128;SDS011;21301;43.626;10.580;2024-03-23T13:20:58;9.40;;;4.85;;
35128;SDS011;21301;43.626;10.580;2024-03-23T13:23:24;14.48;;;5.85;;
35128;SDS011;21301;43.626;10.580;2024-03-23T13:25:51;12.63;;;5.28;;
35128;SDS011;21301;43.626;10.580;2024-03-23T13:28:23;13.57;;;5.85;;
35128;SDS011;21301;43.626;10.580;2024-03-23T13:30:52;7.97;;;4.60;;
35128;SDS011;21301;43.626;10.580;2024-03-23T13:33:18;9.35;;;5.80;;
35128;SDS011;21301;43.626;10.580;2024-03-23T13:35:51;9.55;;;6.03;;
35128;SDS011;21301;43.626;10.580;2024-03-23T13:38:17;8.70;;;5.88;;
35128;SDS011;21301;43.626;10.580;2024-03-23T13:43:26;9.48;;;5.95;;
35128;SDS011;21301;43.626;10.580;2024-03-23T13:45:53;9.10;;;5.78;;
35128;SDS011;21301;43.626;10.580;2024-03-23T13:48:24;9.77;;;5.85;;
35128;SDS011;21301;43.626;10.580;2024-03-23T13:53:30;10.60;;;6.05;;
35128;SDS011;21301;43.626;10.580;2024-03-23T13:55:58;9.52;;;5.38;;
35128;SDS011;21301;43.626;10.580;2024-03-23T13:58:24;16.40;;;6.18;;
35128;SDS011;21301;43.626;10.580;2024-03-23T14:00:51;13.85;;;6.15;;
35128;SDS011;21301;43.626;10.580;2024-03-23T14:03:16;9.52;;;5.28;;
35128;SDS011;21301;43.626;10.580;2024-03-23T14:05:43;11.00;;;5.15;;
35128;SDS011;21301;43.626;10.580;2024-03-23T14:08:09;10.70;;;5.63;;
35128;SDS011;21301;43.626;10.580;2024-03-23T14:10:40;14.10;;;6.07;;
35128;SDS011;21301;43.626;10.580;2024-03-23T14:13:08;10.40;;;4.80;;
35128;SDS011;21301;43.626;10.580;2024-03-23T14:15:33;18.15;;;6.50;;
35128;SDS011;21301;43.626;10.580;2024-03-23T14:18:03;20.77;;;7.13;;
35128;SDS011;21301;43.626;10.580;2024-03-23T14:20:29;13.80;;;6.07;;
35128;SDS011;21301;43.626;10.580;2024-03-23T14:22:54;13.38;;;5.40;;
35128;SDS011;21301;43.626;10.580;2024-03-23T14:25:20;13.18;;;6.07;;
35128;SDS011;21301;43.626;10.580;2024-03-23T14:27:49;18.13;;;5.32;;
35128;SDS011;21301;43.626;10.580;2024-03-23T14:30:14;9.18;;;5.32;;
35128;SDS011;21301;43.626;10.580;2024-03-23T14:32:40;11.20;;;5.28;;
35128;SDS011;21301;43.626;10.580;2024-03-23T14:35:08;18.45;;;6.38;;
35128;SDS011;21301;43.626;10.580;2024-03-23T14:37:36;9.52;;;6.05;;
35128;SDS011;21301;43.626;10.580;2024-03-23T14:40:01;10.77;;;5.35;;
35128;SDS011;21301;43.626;10.580;2024-03-23T14:42:30;13.05;;;6.57;;
35128;SDS011;21301;43.626;10.580;2024-03-23T14:44:59;11.88;;;6.03;;
35128;SDS011;21301;43.626;10.580;2024-03-23T14:47:26;11.15;;;5.97;;
35128;SDS011;21301;43.626;10.580;2024-03-23T14:49:51;10.48;;;6.75;;
35128;SDS011;21301;43.626;10.580;2024-03-23T14:52:17;8.90;;;5.03;;
35128;SDS011;21301;43.626;10.580;2024-03-23T14:54:44;10.75;;;5.53;;
35128;SDS011;21301;43.626;10.580;2024-03-23T14:57:11;11.52;;;6.22;;
35128;SDS011;21301;43.626;10.580;2024-03-23T14:59:37;12.15;;;6.05;;
35128;SDS011;21301;43.626;10.580;2024-03-23T15:02:06;14.02;;;7.07;;
35128;SDS011;21301;43.626;10.580;2024-03-23T15:04:31;11.50;;;5.75;;
35128;SDS011;21301;43.626;10.580;2024-03-23T15:06:57;12.80;;;7.45;;
35128;SDS011;21301;43.626;10.580;2024-03-23T15:09:22;12.70;;;6.38;;
35128;SDS011;21301;43.626;10.580;2024-03-23T15:11:48;13.40;;;6.63;;
35128;SDS011;21301;43.626;10.580;2024-03-23T15:14:13;11.52;;;6.70;;
35128;SDS011;21301;43.626;10.580;2024-03-23T15:16:39;14.50;;;7.38;;
35128;SDS011;21301;43.626;10.580;2024-03-23T15:19:07;9.95;;;6.57;;
35128;SDS011;21301;43.626;10.580;2024-03-23T15:21:34;11.82;;;6.30;;
35128;SDS011;21301;43.626;10.580;2024-03-23T15:23:59;12.90;;;7.38;;
35128;SDS011;21301;43.626;10.580;2024-03-23T15:26:26;12.15;;;6.30;;
35128;SDS011;21301;43.626;10.580;2024-03-23T15:28:52;12.38;;;7.80;;
35128;SDS011;21301;43.626;10.580;2024-03-23T15:31:24;10.50;;;7.20;;
35128;SDS011;21301;43.626;10.580;2024-03-23T15:33:50;11.35;;;7.20;;